Terminal Aerodrome Forecast
Issued by NWS

Home | Current Version | Previous Version | Graphics & Text | Print | Product List | Glossary On
Versions: 1 2 3 4 5 6 7 8 9 10 11 12 13 14 15 16
000
FTUS43 KBIS 180904 AAA
TAFMOT
TAF AMD
KMOT 180904Z 1809/1906 22014KT P6SM FEW240 WS020/29040KT
     FM181200 24013KT P6SM FEW250 WS020/29035KT
     FM181500 22012KT P6SM FEW250=

USA.gov is the U.S. government's official web portal to all federal, state and local government web resources and services.